sensor_id;sensor_type;location;lat;lon;timestamp;temperature;humidity
71754;DHT22;59593;51.716;7.016;2024-01-10T00:01:22;-2.90;99.90
71754;DHT22;59593;51.716;7.016;2024-01-10T00:03:52;-2.90;99.90
71754;DHT22;59593;51.716;7.016;2024-01-10T00:06:18;-3.00;99.90
71754;DHT22;59593;51.716;7.016;2024-01-10T00:08:43;-3.00;99.90
71754;DHT22;59593;51.716;7.016;2024-01-10T00:11:09;-2.90;99.90
71754;DHT22;59593;51.716;7.016;2024-01-10T00:13:35;-3.00;99.90
71754;DHT22;59593;51.716;7.016;2024-01-10T00:16:00;-2.90;99.90
71754;DHT22;59593;51.716;7.016;2024-01-10T00:18:37;-2.90;99.90
71754;DHT22;59593;51.716;7.016;2024-01-10T00:21:03;-3.00;99.90
71754;DHT22;59593;51.716;7.016;2024-01-10T00:23:28;-3.00;99.90
71754;DHT22;59593;51.716;7.016;2024-01-10T00:25:54;-2.90;99.90
71754;DHT22;59593;51.716;7.016;2024-01-10T00:28:19;-2.90;99.90
71754;DHT22;59593;51.716;7.016;2024-01-10T00:30:45;-3.00;99.90
71754;DHT22;59593;51.716;7.016;2024-01-10T00:33:13;-3.00;99.90
71754;DHT22;59593;51.716;7.016;2024-01-10T00:35:38;-3.10;99.90
71754;DHT22;59593;51.716;7.016;2024-01-10T00:38:04;-3.10;99.90
71754;DHT22;59593;51.716;7.016;2024-01-10T00:40:29;-3.20;99.90
71754;DHT22;59593;51.716;7.016;2024-01-10T00:42:55;-3.20;99.90
71754;DHT22;59593;51.716;7.016;2024-01-10T00:45:20;-3.20;99.90
71754;DHT22;59593;51.716;7.016;2024-01-10T00:47:48;-3.20;99.90
71754;DHT22;59593;51.716;7.016;2024-01-10T00:50:14;-3.20;99.90
71754;DHT22;59593;51.716;7.016;2024-01-10T00:52:40;-3.20;99.90
71754;DHT22;59593;51.716;7.016;2024-01-10T00:55:06;-3.30;99.90
71754;DHT22;59593;51.716;7.016;2024-01-10T00:57:31;-3.40;99.90
71754;DHT22;59593;51.716;7.016;2024-01-10T00:59:57;-3.50;99.90
71754;DHT22;59593;51.716;7.016;2024-01-10T01:02:23;-3.50;99.90
71754;DHT22;59593;51.716;7.016;2024-01-10T01:04:48;-3.50;99.90
71754;DHT22;59593;51.716;7.016;2024-01-10T01:07:14;-3.60;99.90
71754;DHT22;59593;51.716;7.016;2024-01-10T01:09:39;-3.60;99.90
71754;DHT22;59593;51.716;7.016;2024-01-10T01:12:05;-3.60;99.90
71754;DHT22;59593;51.716;7.016;2024-01-10T01:14:31;-3.70;99.90
71754;DHT22;59593;51.716;7.016;2024-01-10T01:16:56;-3.70;99.90
71754;DHT22;59593;51.716;7.016;2024-01-10T01:19:22;-3.80;99.90
71754;DHT22;59593;51.716;7.016;2024-01-10T01:22:07;-3.80;99.90
71754;DHT22;59593;51.716;7.016;2024-01-10T01:24:33;-3.80;99.90
71754;DHT22;59593;51.716;7.016;2024-01-10T01:26:59;-3.90;99.90
71754;DHT22;59593;51.716;7.016;2024-01-10T01:29:24;-3.80;99.90
71754;DHT22;59593;51.716;7.016;2024-01-10T01:31:50;-3.90;99.90
71754;DHT22;59593;51.716;7.016;2024-01-10T01:34:16;-3.80;99.90
71754;DHT22;59593;51.716;7.016;2024-01-10T01:36:41;-3.80;99.90
71754;DHT22;59593;51.716;7.016;2024-01-10T01:39:07;-3.80;99.90
71754;DHT22;59593;51.716;7.016;2024-01-10T01:41:32;-3.80;99.90
71754;DHT22;59593;51.716;7.016;2024-01-10T01:43:58;-3.90;99.90
71754;DHT22;59593;51.716;7.016;2024-01-10T01:46:24;-4.00;99.90
71754;DHT22;59593;51.716;7.016;2024-01-10T01:48:50;-3.90;99.90
71754;DHT22;59593;51.716;7.016;2024-01-10T01:51:20;-3.90;99.90
71754;DHT22;59593;51.716;7.016;2024-01-10T01:53:48;-3.90;99.90
71754;DHT22;59593;51.716;7.016;2024-01-10T01:56:15;-3.90;99.90
71754;DHT22;59593;51.716;7.016;2024-01-10T01:58:42;-3.90;99.90
71754;DHT22;59593;51.716;7.016;2024-01-10T02:01:09;-4.00;99.90
71754;DHT22;59593;51.716;7.016;2024-01-10T02:03:37;-3.90;99.90
71754;DHT22;59593;51.716;7.016;2024-01-10T02:06:03;-4.00;99.90
71754;DHT22;59593;51.716;7.016;2024-01-10T02:08:32;-4.00;99.90
71754;DHT22;59593;51.716;7.016;2024-01-10T02:10:59;-4.00;99.90
71754;DHT22;59593;51.716;7.016;2024-01-10T02:13:25;-3.90;99.90
71754;DHT22;59593;51.716;7.016;2024-01-10T02:15:52;-4.00;99.90
71754;DHT22;59593;51.716;7.016;2024-01-10T02:18:17;-4.00;99.90
71754;DHT22;59593;51.716;7.016;2024-01-10T02:20:46;-4.10;99.90
71754;DHT22;59593;51.716;7.016;2024-01-10T02:23:12;-4.10;99.90
71754;DHT22;59593;51.716;7.016;2024-01-10T02:25:40;-4.00;99.90
71754;DHT22;59593;51.716;7.016;2024-01-10T02:28:06;-4.10;99.90
71754;DHT22;59593;51.716;7.016;2024-01-10T02:30:32;-4.10;99.90
71754;DHT22;59593;51.716;7.016;2024-01-10T02:32:58;-4.20;99.90
71754;DHT22;59593;51.716;7.016;2024-01-10T02:35:23;-4.20;99.90
71754;DHT22;59593;51.716;7.016;2024-01-10T02:37:49;-4.20;99.90
71754;DHT22;59593;51.716;7.016;2024-01-10T02:40:19;-4.10;99.90
71754;DHT22;59593;51.716;7.016;2024-01-10T02:42:44;-4.20;99.90
71754;DHT22;59593;51.716;7.016;2024-01-10T02:45:10;-4.20;99.90
71754;DHT22;59593;51.716;7.016;2024-01-10T02:47:35;-4.30;99.90
71754;DHT22;59593;51.716;7.016;2024-01-10T02:50:03;-4.30;99.90
71754;DHT22;59593;51.716;7.016;2024-01-10T02:52:28;-4.40;99.90
71754;DHT22;59593;51.716;7.016;2024-01-10T02:54:54;-4.40;99.90
71754;DHT22;59593;51.716;7.016;2024-01-10T02:57:19;-4.40;99.90
71754;DHT22;59593;51.716;7.016;2024-01-10T02:59:45;-4.50;99.90
71754;DHT22;59593;51.716;7.016;2024-01-10T03:02:11;-4.50;99.90
71754;DHT22;59593;51.716;7.016;2024-01-10T03:04:37;-4.60;99.90
71754;DHT22;59593;51.716;7.016;2024-01-10T03:07:03;-4.60;99.90
71754;DHT22;59593;51.716;7.016;2024-01-10T03:09:28;-4.60;99.90
71754;DHT22;59593;51.716;7.016;2024-01-10T03:11:54;-4.70;99.90
71754;DHT22;59593;51.716;7.016;2024-01-10T03:14:20;-4.70;99.90
71754;DHT22;59593;51.716;7.016;2024-01-10T03:16:45;-4.60;99.90
71754;DHT22;59593;51.716;7.016;2024-01-10T03:19:11;-4.70;99.90
71754;DHT22;59593;51.716;7.016;2024-01-10T03:21:37;-4.70;99.90
71754;DHT22;59593;51.716;7.016;2024-01-10T03:24:02;-4.70;99.90
71754;DHT22;59593;51.716;7.016;2024-01-10T03:26:28;-4.80;99.90
71754;DHT22;59593;51.716;7.016;2024-01-10T03:28:55;-4.70;99.90
71754;DHT22;59593;51.716;7.016;2024-01-10T03:31:21;-4.80;99.90
71754;DHT22;59593;51.716;7.016;2024-01-10T03:33:47;-4.80;99.90
71754;DHT22;59593;51.716;7.016;2024-01-10T03:36:14;-4.70;99.90
71754;DHT22;59593;51.716;7.016;2024-01-10T03:38:40;-4.80;99.90
71754;DHT22;59593;51.716;7.016;2024-01-10T03:41:06;-4.80;99.90
71754;DHT22;59593;51.716;7.016;2024-01-10T03:43:32;-4.80;99.90
71754;DHT22;59593;51.716;7.016;2024-01-10T03:45:58;-4.80;99.90
71754;DHT22;59593;51.716;7.016;2024-01-10T03:48:23;-4.80;99.90
71754;DHT22;59593;51.716;7.016;2024-01-10T03:50:49;-4.80;99.90
71754;DHT22;59593;51.716;7.016;2024-01-10T03:53:15;-4.80;99.90
71754;DHT22;59593;51.716;7.016;2024-01-10T03:55:40;-4.90;99.90
71754;DHT22;59593;51.716;7.016;2024-01-10T03:58:06;-4.90;99.90
71754;DHT22;59593;51.716;7.016;2024-01-10T04:00:32;-4.90;99.90
71754;DHT22;59593;51.716;7.016;2024-01-10T04:02:57;-4.90;99.90
71754;DHT22;59593;51.716;7.016;2024-01-10T04:05:23;-5.00;99.90
71754;DHT22;59593;51.716;7.016;2024-01-10T04:07:50;-5.00;99.90
71754;DHT22;59593;51.716;7.016;2024-01-10T04:10:16;-5.00;99.90
71754;DHT22;59593;51.716;7.016;2024-01-10T04:12:42;-5.00;99.90
71754;DHT22;59593;51.716;7.016;2024-01-10T04:15:08;-5.00;99.90
71754;DHT22;59593;51.716;7.016;2024-01-10T04:17:34;-5.00;99.90
71754;DHT22;59593;51.716;7.016;2024-01-10T04:20:00;-4.90;99.90
71754;DHT22;59593;51.716;7.016;2024-01-10T04:22:26;-4.90;99.90
71754;DHT22;59593;51.716;7.016;2024-01-10T04:24:51;-4.90;99.90
71754;DHT22;59593;51.716;7.016;2024-01-10T04:27:17;-4.90;99.90
71754;DHT22;59593;51.716;7.016;2024-01-10T04:29:45;-5.00;99.90
71754;DHT22;59593;51.716;7.016;2024-01-10T04:32:11;-4.90;99.90
71754;DHT22;59593;51.716;7.016;2024-01-10T04:34:37;-4.90;99.90
71754;DHT22;59593;51.716;7.016;2024-01-10T04:37:02;-4.90;99.90
71754;DHT22;59593;51.716;7.016;2024-01-10T04:39:28;-4.90;99.90
71754;DHT22;59593;51.716;7.016;2024-01-10T04:41:54;-4.80;99.90
71754;DHT22;59593;51.716;7.016;2024-01-10T04:44:20;-4.80;99.90
71754;DHT22;59593;51.716;7.016;2024-01-10T04:46:46;-4.80;99.90
71754;DHT22;59593;51.716;7.016;2024-01-10T04:49:11;-4.80;99.90
71754;DHT22;59593;51.716;7.016;2024-01-10T04:51:37;-4.90;99.90
71754;DHT22;59593;51.716;7.016;2024-01-10T04:54:03;-4.90;99.90
71754;DHT22;59593;51.716;7.016;2024-01-10T04:56:29;-4.90;99.90
71754;DHT22;59593;51.716;7.016;2024-01-10T04:58:55;-4.90;99.90
71754;DHT22;59593;51.716;7.016;2024-01-10T05:01:20;-4.80;99.90
71754;DHT22;59593;51.716;7.016;2024-01-10T05:03:46;-4.90;99.90
71754;DHT22;59593;51.716;7.016;2024-01-10T05:06:11;-4.80;99.90
71754;DHT22;59593;51.716;7.016;2024-01-10T05:08:37;-4.90;99.90
71754;DHT22;59593;51.716;7.016;2024-01-10T05:11:03;-4.90;99.90
71754;DHT22;59593;51.716;7.016;2024-01-10T05:13:29;-4.90;99.90
71754;DHT22;59593;51.716;7.016;2024-01-10T05:15:54;-4.90;99.90
71754;DHT22;59593;51.716;7.016;2024-01-10T05:18:21;-4.90;99.90
71754;DHT22;59593;51.716;7.016;2024-01-10T05:20:47;-4.90;99.90
71754;DHT22;59593;51.716;7.016;2024-01-10T05:23:13;-4.90;99.90
71754;DHT22;59593;51.716;7.016;2024-01-10T05:25:40;-4.80;99.90
71754;DHT22;59593;51.716;7.016;2024-01-10T05:28:05;-4.80;99.90
71754;DHT22;59593;51.716;7.016;2024-01-10T05:30:31;-4.80;99.90
71754;DHT22;59593;51.716;7.016;2024-01-10T05:32:58;-4.70;99.90
71754;DHT22;59593;51.716;7.016;2024-01-10T05:35:24;-4.70;99.90
71754;DHT22;59593;51.716;7.016;2024-01-10T05:37:51;-4.50;99.90
71754;DHT22;59593;51.716;7.016;2024-01-10T05:40:17;-4.50;99.90
71754;DHT22;59593;51.716;7.016;2024-01-10T05:42:45;-4.30;99.90
71754;DHT22;59593;51.716;7.016;2024-01-10T05:45:10;-4.20;99.90
71754;DHT22;59593;51.716;7.016;2024-01-10T05:47:36;-4.30;99.90
71754;DHT22;59593;51.716;7.016;2024-01-10T05:50:04;-4.30;99.90
71754;DHT22;59593;51.716;7.016;2024-01-10T05:52:33;-4.30;99.90
71754;DHT22;59593;51.716;7.016;2024-01-10T05:54:59;-4.30;99.90
71754;DHT22;59593;51.716;7.016;2024-01-10T05:57:27;-4.40;99.90
71754;DHT22;59593;51.716;7.016;2024-01-10T05:59:52;-4.40;99.90
71754;DHT22;59593;51.716;7.016;2024-01-10T06:02:21;-4.40;99.90
71754;DHT22;59593;51.716;7.016;2024-01-10T06:04:46;-4.60;99.90
71754;DHT22;59593;51.716;7.016;2024-01-10T06:07:12;-4.60;99.90
71754;DHT22;59593;51.716;7.016;2024-01-10T06:09:38;-4.60;99.90
71754;DHT22;59593;51.716;7.016;2024-01-10T06:12:05;-4.50;99.90
71754;DHT22;59593;51.716;7.016;2024-01-10T06:14:32;-4.50;99.90
71754;DHT22;59593;51.716;7.016;2024-01-10T06:16:57;-4.60;99.90
71754;DHT22;59593;51.716;7.016;2024-01-10T06:19:25;-4.50;99.90
71754;DHT22;59593;51.716;7.016;2024-01-10T06:21:50;-4.50;99.90
71754;DHT22;59593;51.716;7.016;2024-01-10T06:24:17;-4.50;99.90
71754;DHT22;59593;51.716;7.016;2024-01-10T06:26:43;-4.50;99.90
71754;DHT22;59593;51.716;7.016;2024-01-10T06:29:09;-4.50;99.90
71754;DHT22;59593;51.716;7.016;2024-01-10T06:31:34;-4.50;99.90
71754;DHT22;59593;51.716;7.016;2024-01-10T06:34:00;-4.50;99.90
71754;DHT22;59593;51.716;7.016;2024-01-10T06:36:25;-4.60;99.90
71754;DHT22;59593;51.716;7.016;2024-01-10T06:38:51;-4.60;99.90
71754;DHT22;59593;51.716;7.016;2024-01-10T06:41:17;-4.70;99.90
71754;DHT22;59593;51.716;7.016;2024-01-10T06:43:42;-4.70;99.90
71754;DHT22;59593;51.716;7.016;2024-01-10T06:46:09;-4.70;99.90
71754;DHT22;59593;51.716;7.016;2024-01-10T06:48:36;-4.80;99.90
71754;DHT22;59593;51.716;7.016;2024-01-10T06:51:01;-4.80;99.90
71754;DHT22;59593;51.716;7.016;2024-01-10T06:53:27;-4.80;99.90
71754;DHT22;59593;51.716;7.016;2024-01-10T06:55:53;-4.80;99.90
71754;DHT22;59593;51.716;7.016;2024-01-10T06:58:18;-4.70;99.90
71754;DHT22;59593;51.716;7.016;2024-01-10T07:00:44;-4.70;99.90
71754;DHT22;59593;51.716;7.016;2024-01-10T07:03:09;-4.70;99.90
71754;DHT22;59593;51.716;7.016;2024-01-10T07:05:35;-4.60;99.90
71754;DHT22;59593;51.716;7.016;2024-01-10T07:08:02;-4.50;99.90
71754;DHT22;59593;51.716;7.016;2024-01-10T07:10:29;-4.60;99.90
71754;DHT22;59593;51.716;7.016;2024-01-10T07:12:55;-4.60;99.90
71754;DHT22;59593;51.716;7.016;2024-01-10T07:15:21;-4.70;99.90
71754;DHT22;59593;51.716;7.016;2024-01-10T07:17:46;-4.70;99.90
71754;DHT22;59593;51.716;7.016;2024-01-10T07:20:12;-4.70;99.90
71754;DHT22;59593;51.716;7.016;2024-01-10T07:22:38;-4.70;99.90
71754;DHT22;59593;51.716;7.016;2024-01-10T07:25:12;-4.70;99.90
71754;DHT22;59593;51.716;7.016;2024-01-10T07:27:43;-4.70;99.90
71754;DHT22;59593;51.716;7.016;2024-01-10T07:30:09;-4.70;99.90
71754;DHT22;59593;51.716;7.016;2024-01-10T07:32:44;-4.80;99.90
71754;DHT22;59593;51.716;7.016;2024-01-10T07:35:10;-4.70;99.90
71754;DHT22;59593;51.716;7.016;2024-01-10T07:37:40;-4.70;99.90
71754;DHT22;59593;51.716;7.016;2024-01-10T07:40:07;-4.60;99.90
71754;DHT22;59593;51.716;7.016;2024-01-10T07:42:36;-4.60;99.90
71754;DHT22;59593;51.716;7.016;2024-01-10T07:45:03;-4.70;99.90
71754;DHT22;59593;51.716;7.016;2024-01-10T07:47:30;-4.70;99.90
71754;DHT22;59593;51.716;7.016;2024-01-10T07:49:57;-4.60;99.90
71754;DHT22;59593;51.716;7.016;2024-01-10T07:52:22;-4.60;99.90
71754;DHT22;59593;51.716;7.016;2024-01-10T07:54:48;-4.60;99.90
71754;DHT22;59593;51.716;7.016;2024-01-10T07:57:14;-4.60;99.90
71754;DHT22;59593;51.716;7.016;2024-01-10T07:59:40;-4.50;99.90
71754;DHT22;59593;51.716;7.016;2024-01-10T08:02:05;-4.40;99.90
71754;DHT22;59593;51.716;7.016;2024-01-10T08:04:32;-4.30;99.90
71754;DHT22;59593;51.716;7.016;2024-01-10T08:06:58;-4.40;99.90
71754;DHT22;59593;51.716;7.016;2024-01-10T08:09:24;-4.30;99.90
71754;DHT22;59593;51.716;7.016;2024-01-10T08:11:49;-4.40;99.90
71754;DHT22;59593;51.716;7.016;2024-01-10T08:14:15;-4.30;99.90
71754;DHT22;59593;51.716;7.016;2024-01-10T08:16:41;-4.30;99.90
71754;DHT22;59593;51.716;7.016;2024-01-10T08:19:08;-4.30;99.90
71754;DHT22;59593;51.716;7.016;2024-01-10T08:21:34;-4.30;99.90
71754;DHT22;59593;51.716;7.016;2024-01-10T08:24:01;-4.20;99.90
71754;DHT22;59593;51.716;7.016;2024-01-10T08:26:27;-4.20;99.90
71754;DHT22;59593;51.716;7.016;2024-01-10T08:28:53;-4.20;99.90
71754;DHT22;59593;51.716;7.016;2024-01-10T08:31:19;-4.20;99.90
71754;DHT22;59593;51.716;7.016;2024-01-10T08:33:45;-4.20;99.90
71754;DHT22;59593;51.716;7.016;2024-01-10T08:36:11;-4.10;99.90
71754;DHT22;59593;51.716;7.016;2024-01-10T08:38:38;-4.00;99.90
71754;DHT22;59593;51.716;7.016;2024-01-10T08:41:04;-3.90;99.90
71754;DHT22;59593;51.716;7.016;2024-01-10T08:43:29;-3.90;99.90
71754;DHT22;59593;51.716;7.016;2024-01-10T08:45:56;-3.80;99.90
71754;DHT22;59593;51.716;7.016;2024-01-10T08:48:23;-3.70;99.90
71754;DHT22;59593;51.716;7.016;2024-01-10T08:50:49;-3.60;99.90
71754;DHT22;59593;51.716;7.016;2024-01-10T08:53:15;-3.50;99.90
71754;DHT22;59593;51.716;7.016;2024-01-10T08:55:41;-3.40;99.90
71754;DHT22;59593;51.716;7.016;2024-01-10T08:58:07;-3.30;99.90
71754;DHT22;59593;51.716;7.016;2024-01-10T09:00:33;-3.20;99.90
71754;DHT22;59593;51.716;7.016;2024-01-10T09:02:59;-3.10;99.90
71754;DHT22;59593;51.716;7.016;2024-01-10T09:05:25;-3.10;99.90
71754;DHT22;59593;51.716;7.016;2024-01-10T09:07:50;-3.00;99.90
71754;DHT22;59593;51.716;7.016;2024-01-10T09:10:16;-3.00;99.90
71754;DHT22;59593;51.716;7.016;2024-01-10T09:12:42;-3.00;99.90
71754;DHT22;59593;51.716;7.016;2024-01-10T09:15:11;-2.90;99.90
71754;DHT22;59593;51.716;7.016;2024-01-10T09:17:39;-2.90;99.90
71754;DHT22;59593;51.716;7.016;2024-01-10T09:20:05;-2.80;99.90
71754;DHT22;59593;51.716;7.016;2024-01-10T09:22:31;-2.80;99.90
71754;DHT22;59593;51.716;7.016;2024-01-10T09:24:57;-2.80;99.90
71754;DHT22;59593;51.716;7.016;2024-01-10T09:27:29;-2.80;99.90
71754;DHT22;59593;51.716;7.016;2024-01-10T09:29:55;-2.70;99.90
71754;DHT22;59593;51.716;7.016;2024-01-10T09:32:20;-2.60;99.90
71754;DHT22;59593;51.716;7.016;2024-01-10T09:34:46;-2.50;99.90
71754;DHT22;59593;51.716;7.016;2024-01-10T09:37:11;-2.40;99.90
71754;DHT22;59593;51.716;7.016;2024-01-10T09:39:37;-2.30;99.90
71754;DHT22;59593;51.716;7.016;2024-01-10T09:42:04;-2.20;99.90
71754;DHT22;59593;51.716;7.016;2024-01-10T09:44:29;-2.20;99.90
71754;DHT22;59593;51.716;7.016;2024-01-10T09:46:55;-2.20;99.90
71754;DHT22;59593;51.716;7.016;2024-01-10T09:49:21;-2.00;99.90
71754;DHT22;59593;51.716;7.016;2024-01-10T09:51:48;-2.10;99.90
71754;DHT22;59593;51.716;7.016;2024-01-10T09:54:15;-1.90;99.90
71754;DHT22;59593;51.716;7.016;2024-01-10T09:56:42;-1.80;99.90
71754;DHT22;59593;51.716;7.016;2024-01-10T09:59:07;-1.90;99.90
71754;DHT22;59593;51.716;7.016;2024-01-10T10:01:39;-1.90;99.90
71754;DHT22;59593;51.716;7.016;2024-01-10T10:04:07;-1.80;99.90
71754;DHT22;59593;51.716;7.016;2024-01-10T10:06:34;-1.80;99.90
71754;DHT22;59593;51.716;7.016;2024-01-10T10:09:00;-1.70;99.90
71754;DHT22;59593;51.716;7.016;2024-01-10T10:11:26;-1.50;99.90
71754;DHT22;59593;51.716;7.016;2024-01-10T10:13:51;-1.40;99.90
71754;DHT22;59593;51.716;7.016;2024-01-10T10:16:26;-1.40;99.90
71754;DHT22;59593;51.716;7.016;2024-01-10T10:18:52;-1.20;99.90
71754;DHT22;59593;51.716;7.016;2024-01-10T10:21:24;-1.10;99.90
71754;DHT22;59593;51.716;7.016;2024-01-10T10:24:01;-0.90;99.90
71754;DHT22;59593;51.716;7.016;2024-01-10T10:26:28;-0.70;99.90
71754;DHT22;59593;51.716;7.016;2024-01-10T10:28:54;-0.60;99.90
71754;DHT22;59593;51.716;7.016;2024-01-10T10:31:21;-0.20;99.90
71754;DHT22;59593;51.716;7.016;2024-01-10T10:33:49;0.00;99.90
71754;DHT22;59593;51.716;7.016;2024-01-10T10:36:18;0.10;99.90
71754;DHT22;59593;51.716;7.016;2024-01-10T10:38:44;0.10;99.90
71754;DHT22;59593;51.716;7.016;2024-01-10T10:41:12;0.20;99.90
71754;DHT22;59593;51.716;7.016;2024-01-10T10:43:40;-0.10;99.90
71754;DHT22;59593;51.716;7.016;2024-01-10T10:46:10;0.10;99.90
71754;DHT22;59593;51.716;7.016;2024-01-10T10:48:38;0.00;99.90
71754;DHT22;59593;51.716;7.016;2024-01-10T10:51:11;-0.10;99.90
71754;DHT22;59593;51.716;7.016;2024-01-10T10:53:38;0.00;99.90
71754;DHT22;59593;51.716;7.016;2024-01-10T10:56:05;0.20;99.90
71754;DHT22;59593;51.716;7.016;2024-01-10T10:58:36;0.30;99.90
71754;DHT22;59593;51.716;7.016;2024-01-10T11:01:04;0.60;99.90
71754;DHT22;59593;51.716;7.016;2024-01-10T11:03:38;0.70;99.90
71754;DHT22;59593;51.716;7.016;2024-01-10T11:06:05;1.20;99.90
71754;DHT22;59593;51.716;7.016;2024-01-10T11:08:40;1.50;99.90
71754;DHT22;59593;51.716;7.016;2024-01-10T11:11:19;1.90;99.90
71754;DHT22;59593;51.716;7.016;2024-01-10T11:16:41;2.20;99.90
71754;DHT22;59593;51.716;7.016;2024-01-10T11:25:26;3.90;99.90
71754;DHT22;59593;51.716;7.016;2024-01-10T11:27:54;4.00;99.90
71754;DHT22;59593;51.716;7.016;2024-01-10T11:30:37;3.30;99.90
71754;DHT22;59593;51.716;7.016;2024-01-10T11:33:31;3.60;99.90
71754;DHT22;59593;51.716;7.016;2024-01-10T11:36:12;4.20;99.90
71754;DHT22;59593;51.716;7.016;2024-01-10T11:38:43;3.70;99.90
71754;DHT22;59593;51.716;7.016;2024-01-10T11:41:19;4.50;99.90
71754;DHT22;59593;51.716;7.016;2024-01-10T11:43:54;5.30;99.90
71754;DHT22;59593;51.716;7.016;2024-01-10T11:46:32;5.30;99.90
71754;DHT22;59593;51.716;7.016;2024-01-10T11:48:58;5.50;99.90
71754;DHT22;59593;51.716;7.016;2024-01-10T11:51:24;5.10;99.90
71754;DHT22;59593;51.716;7.016;2024-01-10T11:53:50;5.60;99.90
71754;DHT22;59593;51.716;7.016;2024-01-10T11:56:18;5.60;99.90
71754;DHT22;59593;51.716;7.016;2024-01-10T11:59:02;5.20;99.90
71754;DHT22;59593;51.716;7.016;2024-01-10T12:01:29;5.50;99.90
71754;DHT22;59593;51.716;7.016;2024-01-10T12:03:55;5.90;99.90
71754;DHT22;59593;51.716;7.016;2024-01-10T12:06:22;5.60;99.90
71754;DHT22;59593;51.716;7.016;2024-01-10T12:08:48;6.00;99.90
71754;DHT22;59593;51.716;7.016;2024-01-10T12:11:14;5.40;99.90
71754;DHT22;59593;51.716;7.016;2024-01-10T12:13:41;5.60;99.90
71754;DHT22;59593;51.716;7.016;2024-01-10T12:16:06;6.10;99.90
71754;DHT22;59593;51.716;7.016;2024-01-10T12:18:32;6.50;99.90
71754;DHT22;59593;51.716;7.016;2024-01-10T12:20:58;6.50;99.90
71754;DHT22;59593;51.716;7.016;2024-01-10T12:23:23;6.50;99.90
71754;DHT22;59593;51.716;7.016;2024-01-10T12:25:49;6.20;99.90
71754;DHT22;59593;51.716;7.016;2024-01-10T12:28:18;6.70;99.70
71754;DHT22;59593;51.716;7.016;2024-01-10T12:30:43;7.00;99.30
71754;DHT22;59593;51.716;7.016;2024-01-10T12:33:09;6.80;99.10
71754;DHT22;59593;51.716;7.016;2024-01-10T12:35:35;6.90;99.60
71754;DHT22;59593;51.716;7.016;2024-01-10T12:38:00;7.10;99.00
71754;DHT22;59593;51.716;7.016;2024-01-10T12:40:26;7.30;98.70
71754;DHT22;59593;51.716;7.016;2024-01-10T12:43:04;7.10;98.20
71754;DHT22;59593;51.716;7.016;2024-01-10T12:45:30;7.30;98.30
71754;DHT22;59593;51.716;7.016;2024-01-10T12:47:57;7.20;99.00
71754;DHT22;59593;51.716;7.016;2024-01-10T12:50:23;6.50;98.90
71754;DHT22;59593;51.716;7.016;2024-01-10T12:52:51;7.20;98.80
71754;DHT22;59593;51.716;7.016;2024-01-10T12:55:16;8.50;98.00
71754;DHT22;59593;51.716;7.016;2024-01-10T12:57:43;8.20;97.60
71754;DHT22;59593;51.716;7.016;2024-01-10T13:00:09;8.60;96.30
71754;DHT22;59593;51.716;7.016;2024-01-10T13:02:36;9.00;95.90
71754;DHT22;59593;51.716;7.016;2024-01-10T13:05:06;7.00;96.20
71754;DHT22;59593;51.716;7.016;2024-01-10T13:07:35;7.20;97.00
71754;DHT22;59593;51.716;7.016;2024-01-10T13:10:01;7.00;97.00
71754;DHT22;59593;51.716;7.016;2024-01-10T13:12:27;7.40;97.20
71754;DHT22;59593;51.716;7.016;2024-01-10T13:14:53;6.20;97.30
71754;DHT22;59593;51.716;7.016;2024-01-10T13:17:19;6.90;97.00
71754;DHT22;59593;51.716;7.016;2024-01-10T13:19:46;6.70;95.90
71754;DHT22;59593;51.716;7.016;2024-01-10T13:22:15;7.10;96.60
71754;DHT22;59593;51.716;7.016;2024-01-10T13:24:45;7.20;96.50
71754;DHT22;59593;51.716;7.016;2024-01-10T13:27:10;7.90;96.20
71754;DHT22;59593;51.716;7.016;2024-01-10T13:29:36;7.30;95.20
71754;DHT22;59593;51.716;7.016;2024-01-10T13:32:04;7.80;96.10
71754;DHT22;59593;51.716;7.016;2024-01-10T13:34:30;7.40;95.90
71754;DHT22;59593;51.716;7.016;2024-01-10T13:36:55;6.90;96.30
71754;DHT22;59593;51.716;7.016;2024-01-10T13:39:21;7.20;95.60
71754;DHT22;59593;51.716;7.016;2024-01-10T13:41:46;7.80;96.20
71754;DHT22;59593;51.716;7.016;2024-01-10T13:44:12;7.30;96.10
71754;DHT22;59593;51.716;7.016;2024-01-10T13:46:38;7.20;95.80
71754;DHT22;59593;51.716;7.016;2024-01-10T13:49:03;7.50;95.40
71754;DHT22;59593;51.716;7.016;2024-01-10T13:51:31;8.00;95.30
71754;DHT22;59593;51.716;7.016;2024-01-10T13:53:57;8.70;94.80
71754;DHT22;59593;51.716;7.016;2024-01-10T13:56:23;8.70;93.90
71754;DHT22;59593;51.716;7.016;2024-01-10T13:58:49;8.70;93.70
71754;DHT22;59593;51.716;7.016;2024-01-10T14:01:15;8.10;94.30
71754;DHT22;59593;51.716;7.016;2024-01-10T14:03:40;8.40;94.70
71754;DHT22;59593;51.716;7.016;2024-01-10T14:06:06;8.30;93.70
71754;DHT22;59593;51.716;7.016;2024-01-10T14:08:32;8.80;94.10
71754;DHT22;59593;51.716;7.016;2024-01-10T14:10:59;7.50;94.00
71754;DHT22;59593;51.716;7.016;2024-01-10T14:13:25;6.00;95.60
71754;DHT22;59593;51.716;7.016;2024-01-10T14:15:50;4.90;96.70
71754;DHT22;59593;51.716;7.016;2024-01-10T14:18:16;4.50;97.20
71754;DHT22;59593;51.716;7.016;2024-01-10T14:20:41;3.70;98.00
71754;DHT22;59593;51.716;7.016;2024-01-10T14:23:07;4.10;98.30
71754;DHT22;59593;51.716;7.016;2024-01-10T14:25:33;4.30;98.30
71754;DHT22;59593;51.716;7.016;2024-01-10T14:27:58;3.50;98.40
71754;DHT22;59593;51.716;7.016;2024-01-10T14:30:24;3.00;99.10
71754;DHT22;59593;51.716;7.016;2024-01-10T14:32:50;2.60;99.90
71754;DHT22;59593;51.716;7.016;2024-01-10T14:35:16;2.00;99.90
71754;DHT22;59593;51.716;7.016;2024-01-10T14:37:42;1.90;99.90
71754;DHT22;59593;51.716;7.016;2024-01-10T14:40:08;1.60;99.90
71754;DHT22;59593;51.716;7.016;2024-01-10T14:42:34;1.40;99.90
71754;DHT22;59593;51.716;7.016;2024-01-10T14:45:02;1.20;99.90
71754;DHT22;59593;51.716;7.016;2024-01-10T14:47:29;1.00;99.90
71754;DHT22;59593;51.716;7.016;2024-01-10T14:49:55;0.90;99.90
71754;DHT22;59593;51.716;7.016;2024-01-10T14:52:23;0.90;99.90
71754;DHT22;59593;51.716;7.016;2024-01-10T14:54:51;0.70;99.90
71754;DHT22;59593;51.716;7.016;2024-01-10T14:57:16;0.70;99.90
71754;DHT22;59593;51.716;7.016;2024-01-10T14:59:44;0.50;99.90
71754;DHT22;59593;51.716;7.016;2024-01-10T15:02:09;0.50;99.90
71754;DHT22;59593;51.716;7.016;2024-01-10T15:04:39;0.40;99.90
71754;DHT22;59593;51.716;7.016;2024-01-10T15:07:05;0.30;99.90
71754;DHT22;59593;51.716;7.016;2024-01-10T15:09:31;0.30;99.90
71754;DHT22;59593;51.716;7.016;2024-01-10T15:11:57;0.20;99.90
71754;DHT22;59593;51.716;7.016;2024-01-10T15:14:22;0.20;99.90
71754;DHT22;59593;51.716;7.016;2024-01-10T15:16:48;0.20;99.90
71754;DHT22;59593;51.716;7.016;2024-01-10T15:19:14;0.20;99.90
71754;DHT22;59593;51.716;7.016;2024-01-10T15:21:41;0.30;99.90
71754;DHT22;59593;51.716;7.016;2024-01-10T15:24:06;0.20;99.90
71754;DHT22;59593;51.716;7.016;2024-01-10T15:26:32;0.10;99.90
71754;DHT22;59593;51.716;7.016;2024-01-10T15:28:57;0.00;99.90
71754;DHT22;59593;51.716;7.016;2024-01-10T15:31:24;0.00;99.90
71754;DHT22;59593;51.716;7.016;2024-01-10T15:33:51;-0.10;99.90
71754;DHT22;59593;51.716;7.016;2024-01-10T15:36:16;-0.20;99.90
71754;DHT22;59593;51.716;7.016;2024-01-10T15:38:43;-0.20;99.90
71754;DHT22;59593;51.716;7.016;2024-01-10T15:41:11;-0.20;99.90